createdAt,value
2024-01-26T00:03:04.410Z,10
2024-01-26T00:08:05.293Z,10.6
2024-01-26T00:13:04.474Z,10.6
2024-01-26T00:18:04.430Z,10
2024-01-26T00:23:04.484Z,9.4
2024-01-26T00:28:04.452Z,9.4
2024-01-26T00:33:04.484Z,9.2
2024-01-26T00:38:04.401Z,9.1
2024-01-26T00:43:04.542Z,8.9
2024-01-26T00:48:04.490Z,8.9
2024-01-26T00:53:04.469Z,8.6
2024-01-26T00:58:04.457Z,8.6
2024-01-26T01:03:04.491Z,8.4
2024-01-26T01:08:04.438Z,8.4
2024-01-26T01:13:04.396Z,8.4
2024-01-26T01:18:04.730Z,8.4
2024-01-26T01:23:04.424Z,8.4
2024-01-26T01:28:04.407Z,8.4
2024-01-26T01:33:04.503Z,8.4
2024-01-26T01:38:04.443Z,8.4
2024-01-26T01:43:04.468Z,8.4
2024-01-26T01:48:04.474Z,8.4
2024-01-26T01:53:04.456Z,8.4
2024-01-26T01:58:04.458Z,8.4
2024-01-26T02:03:04.446Z,8
2024-01-26T02:08:04.486Z,8.4
2024-01-26T02:13:04.485Z,8.4
2024-01-26T02:18:04.462Z,8.6
2024-01-26T02:23:04.465Z,8.7
2024-01-26T02:28:04.453Z,8.7
2024-01-26T02:33:04.531Z,8.7
2024-01-26T02:38:04.457Z,9.2
2024-01-26T02:43:04.408Z,9.2
2024-01-26T02:48:04.596Z,9.5
2024-01-26T02:53:04.504Z,9.8
2024-01-26T02:58:04.479Z,9.9
2024-01-26T03:03:04.429Z,10
2024-01-26T03:08:04.416Z,10
2024-01-26T03:13:04.453Z,10
2024-01-26T03:18:04.507Z,10.3
2024-01-26T03:23:04.445Z,10.3
2024-01-26T03:28:04.491Z,10.3
2024-01-26T03:33:04.486Z,11.7
2024-01-26T03:38:04.409Z,11.7
2024-01-26T03:43:04.511Z,11.7
2024-01-26T03:48:04.517Z,11.9
2024-01-26T03:53:04.465Z,11.9
2024-01-26T03:58:04.478Z,11.9
2024-01-26T04:03:04.487Z,12.3
2024-01-26T04:08:04.414Z,12.3
2024-01-26T04:13:04.438Z,12.4
2024-01-26T04:18:04.488Z,12.8
2024-01-26T04:23:04.444Z,13.5
2024-01-26T04:28:04.450Z,13.6
2024-01-26T04:33:04.701Z,13.7
2024-01-26T04:38:04.459Z,13.8
2024-01-26T04:43:04.416Z,14.5
2024-01-26T04:48:04.775Z,15
2024-01-26T04:53:04.472Z,15.3
2024-01-26T04:58:04.422Z,15.6
2024-01-26T05:03:04.496Z,16.2
2024-01-26T05:08:04.480Z,16.4
2024-01-26T05:13:04.450Z,16.4
2024-01-26T05:18:04.496Z,16.8
2024-01-26T05:23:04.439Z,16.8
2024-01-26T05:28:04.476Z,16.8
2024-01-26T05:33:04.527Z,16.8
2024-01-26T05:38:04.480Z,16.8
2024-01-26T05:43:04.473Z,16.8
2024-01-26T05:48:04.636Z,16.8
2024-01-26T05:53:04.501Z,16.9
2024-01-26T05:58:04.488Z,17.1
2024-01-26T06:03:04.511Z,17.5
2024-01-26T06:08:04.462Z,17.6
2024-01-26T06:13:04.669Z,17.6
2024-01-26T06:18:04.600Z,17.6
2024-01-26T06:23:04.493Z,17.8
2024-01-26T06:28:04.734Z,17.8
2024-01-26T06:33:04.578Z,17.8
2024-01-26T06:38:04.472Z,17.7
2024-01-26T06:43:04.468Z,17.9
2024-01-26T06:48:04.639Z,17.9
2024-01-26T06:53:04.494Z,18.5
2024-01-26T06:58:04.519Z,18.9
2024-01-26T07:03:04.565Z,19.7
2024-01-26T07:08:04.495Z,20.1
2024-01-26T07:13:04.478Z,20.9
2024-01-26T07:18:04.564Z,20.9
2024-01-26T07:23:04.496Z,20.9
2024-01-26T07:28:04.455Z,20.9
2024-01-26T07:33:04.465Z,20.7
2024-01-26T07:38:04.459Z,20.7
2024-01-26T07:43:04.466Z,20.2
2024-01-26T07:48:04.562Z,19.3
2024-01-26T07:53:04.520Z,17.6
2024-01-26T07:58:04.488Z,16.8
2024-01-26T08:03:04.483Z,16.6
2024-01-26T08:08:04.475Z,14.2
2024-01-26T08:13:04.593Z,14
2024-01-26T08:18:04.582Z,12.3
2024-01-26T08:23:04.501Z,10.5
2024-01-26T08:28:04.584Z,9.1
2024-01-26T08:33:04.676Z,8
2024-01-26T08:38:04.480Z,7
2024-01-26T08:43:04.465Z,6
2024-01-26T08:48:04.561Z,5.9
2024-01-26T08:53:04.526Z,4.5
2024-01-26T08:58:04.534Z,3.9
2024-01-26T09:03:04.564Z,3
2024-01-26T09:08:04.492Z,2.9
2024-01-26T09:13:04.510Z,2.8
2024-01-26T09:18:04.559Z,2.6
2024-01-26T09:23:04.491Z,2.5
2024-01-26T09:28:04.730Z,2.5
2024-01-26T09:33:04.646Z,2.8
2024-01-26T09:38:04.482Z,2.8
2024-01-26T09:43:04.540Z,2.9
2024-01-26T09:48:04.578Z,2.9
2024-01-26T09:53:04.549Z,3.1
2024-01-26T09:58:04.522Z,3.1
2024-01-26T10:03:04.530Z,3.6
2024-01-26T10:08:04.509Z,3.6
2024-01-26T10:13:04.496Z,3.9
2024-01-26T10:18:04.547Z,4.1
2024-01-26T10:23:04.520Z,4.2
2024-01-26T10:28:04.516Z,4.6
2024-01-26T10:33:04.758Z,4.7
2024-01-26T10:38:04.508Z,4.9
2024-01-26T10:43:04.471Z,4.7
2024-01-26T10:48:04.502Z,4.6
2024-01-26T10:53:04.626Z,4.6
2024-01-26T10:58:04.511Z,3.6
2024-01-26T11:03:04.592Z,3.6
2024-01-26T11:08:04.512Z,2.3
2024-01-26T11:13:04.503Z,2
2024-01-26T11:18:04.715Z,2
2024-01-26T11:23:04.514Z,1.9
2024-01-26T11:28:04.602Z,1.5
2024-01-26T11:33:04.535Z,1.5
2024-01-26T11:38:04.469Z,1.3
2024-01-26T11:43:04.523Z,1.3
2024-01-26T11:48:04.565Z,1.2
2024-01-26T11:53:04.526Z,1.2
2024-01-26T11:58:05.357Z,1.2
2024-01-26T12:03:04.519Z,1.2
2024-01-26T12:08:04.528Z,1.2
2024-01-26T12:13:04.564Z,1.3
2024-01-26T12:18:04.613Z,1.4
2024-01-26T12:23:04.509Z,1.4
2024-01-26T12:28:04.523Z,1.8
2024-01-26T12:33:04.667Z,1.8
2024-01-26T12:38:04.551Z,6.7
2024-01-26T12:43:04.503Z,6.7
2024-01-26T12:48:04.580Z,3.7
2024-01-26T12:53:04.507Z,1.8
2024-01-26T12:58:04.560Z,1.8
2024-01-26T13:03:04.625Z,3.7
2024-01-26T13:08:04.483Z,3.7
2024-01-26T13:13:04.547Z,2.3
2024-01-26T13:18:06.895Z,1.8
2024-01-26T13:23:04.538Z,1.8
2024-01-26T13:28:04.521Z,2
2024-01-26T13:33:04.656Z,2
2024-01-26T13:38:04.508Z,1.9
2024-01-26T13:43:04.583Z,1.9
2024-01-26T13:48:10.858Z,1.9
2024-01-26T13:53:04.792Z,1.9
2024-01-26T13:58:04.621Z,1.9
2024-01-26T14:03:04.783Z,1.7
2024-01-26T14:08:04.519Z,1.7
2024-01-26T14:13:04.556Z,1.7
2024-01-26T14:18:04.692Z,1.6
2024-01-26T14:23:04.565Z,1.6
2024-01-26T14:28:04.635Z,1.7
2024-01-26T14:33:04.682Z,1.8
2024-01-26T14:38:04.584Z,1.8
2024-01-26T14:43:04.603Z,1.6
2024-01-26T14:48:04.625Z,1.6
2024-01-26T14:53:04.554Z,1.4
2024-01-26T14:58:04.525Z,1.2
2024-01-26T15:03:04.586Z,1.1
2024-01-26T15:08:04.556Z,1.1
2024-01-26T15:13:04.569Z,1.1
2024-01-26T15:18:04.761Z,1.1
2024-01-26T15:23:04.531Z,1.1
2024-01-26T15:28:04.537Z,1.1
2024-01-26T15:33:04.642Z,1.1
2024-01-26T15:38:04.556Z,1.1
2024-01-26T15:43:04.594Z,1.2
2024-01-26T15:48:04.728Z,1.2
2024-01-26T15:53:04.587Z,1.2
2024-01-26T15:58:04.554Z,1.2
2024-01-26T16:03:04.585Z,1.3
2024-01-26T16:08:04.571Z,1.3
2024-01-26T16:13:04.561Z,1.4
2024-01-26T16:18:04.687Z,1.7
2024-01-26T16:23:04.605Z,1.7
2024-01-26T16:28:04.557Z,1.7
2024-01-26T16:33:04.625Z,1.8
2024-01-26T16:38:04.548Z,1.8
2024-01-26T16:43:04.587Z,1.8
2024-01-26T16:48:04.652Z,1.8
2024-01-26T16:53:04.546Z,1.8
2024-01-26T16:58:04.569Z,2
2024-01-26T17:03:04.581Z,2.2
2024-01-26T17:08:04.571Z,2.5
2024-01-26T17:13:04.592Z,2.6
2024-01-26T17:18:04.602Z,3.1
2024-01-26T17:23:04.796Z,3.4
2024-01-26T17:28:04.616Z,3.6
2024-01-26T17:33:04.706Z,3.6
2024-01-26T17:38:04.600Z,3.7
2024-01-26T17:43:04.589Z,4.1
2024-01-26T17:48:04.628Z,4.1
2024-01-26T17:53:04.562Z,4.3
2024-01-26T17:58:04.597Z,4.1
2024-01-26T18:03:04.828Z,4.1
2024-01-26T18:08:04.587Z,3.7
2024-01-26T18:13:04.612Z,2.9
2024-01-26T18:18:04.585Z,2.8
2024-01-26T18:23:04.581Z,2
2024-01-26T18:28:04.634Z,2
2024-01-26T18:33:04.701Z,2
2024-01-26T18:38:04.585Z,1.9
2024-01-26T18:43:04.802Z,2
2024-01-26T18:48:04.699Z,2
2024-01-26T18:53:04.591Z,2.4
2024-01-26T18:58:04.618Z,2.5
2024-01-26T19:03:04.579Z,2.5
2024-01-26T19:08:04.587Z,2.5
2024-01-26T19:13:04.570Z,2.5
2024-01-26T19:18:04.668Z,2.5
2024-01-26T19:23:04.847Z,2.1
2024-01-26T19:28:04.594Z,2.1
2024-01-26T19:33:04.676Z,2.1
2024-01-26T19:38:04.610Z,2.1
2024-01-26T19:43:04.575Z,2.2
2024-01-26T19:48:04.622Z,2.2
2024-01-26T19:53:04.580Z,2.2
2024-01-26T19:58:04.649Z,2.3
2024-01-26T20:03:04.699Z,2.3
2024-01-26T20:08:04.574Z,2.6
2024-01-26T20:13:04.615Z,2.4
2024-01-26T20:18:04.685Z,2.4
2024-01-26T20:23:04.636Z,2.4
2024-01-26T20:28:04.587Z,2.4
2024-01-26T20:33:04.693Z,2.3
2024-01-26T20:38:04.599Z,2.3
2024-01-26T20:43:04.636Z,2.3
2024-01-26T20:48:04.688Z,2.2
2024-01-26T20:53:04.622Z,2.3
2024-01-26T20:58:04.847Z,2.3
2024-01-26T21:03:04.623Z,2.3
2024-01-26T21:08:04.616Z,2.5
2024-01-26T21:13:04.661Z,2.3
2024-01-26T21:18:04.638Z,2.3
2024-01-26T21:23:04.600Z,2.3
2024-01-26T21:28:04.625Z,2.3
2024-01-26T21:33:04.710Z,2.3
2024-01-26T21:38:04.631Z,2.5
2024-01-26T21:43:04.634Z,2.5
2024-01-26T21:48:04.713Z,2.5
2024-01-26T21:53:04.620Z,2.7
2024-01-26T21:58:04.651Z,2.7
2024-01-26T22:03:04.646Z,2.7
2024-01-26T22:08:04.598Z,2.7
2024-01-26T22:13:04.655Z,2.6
2024-01-26T22:18:04.729Z,2.3
2024-01-26T22:23:04.623Z,2.3
2024-01-26T22:28:04.605Z,2.3
2024-01-26T22:33:04.652Z,2.3
2024-01-26T22:38:04.617Z,2.4
2024-01-26T22:43:04.644Z,2.4
2024-01-26T22:48:04.725Z,2.4
2024-01-26T22:53:04.612Z,2.4
2024-01-26T22:58:04.647Z,2.5
2024-01-26T23:03:04.705Z,2.7
2024-01-26T23:08:04.604Z,2.7
2024-01-26T23:13:04.624Z,2.5
2024-01-26T23:18:04.822Z,2.5
2024-01-26T23:23:04.640Z,2.5
2024-01-26T23:28:04.648Z,2.5
2024-01-26T23:33:04.657Z,2.3
2024-01-26T23:38:04.666Z,2.3
2024-01-26T23:43:04.690Z,2.2
2024-01-26T23:48:04.747Z,2.2
2024-01-26T23:53:04.605Z,2.2
2024-01-26T23:58:04.617Z,2.2
